CheckWX is a tool to help pilots better visualize weather data.  It is not intended as a substitute for an official pre-flight weather briefing.

04:51:51 UTC

KRYY TAF
Cobb County International-McCollum Field Airport
Atlanta, Georgia, USA
KRYY 222332Z 2300/2324 29010KT P6SM SKC FM230200 31005KT P6SM SKC FM232200 VRB03KT P6SM SKC

Mar-23@
00:00 UTC

Mar-23 @ 00:00 UTC

Mar-23@
02:00 UTC

Mar-23 @ 02:00 UTC

KRYY 222332Z 2300/2324 29010KT P6SM SKC

Expired

Wind
  • 290° at 10 KTS
Cloud Levels
  • Clear skies

Mar-23@
02:00 UTC

Mar-23 @ 02:00 UTC

Mar-23@
22:00 UTC

Mar-23 @ 22:00 UTC

FM230200 31005KT P6SM SKC

From

From Standard forecast or significant change

Wind
  • 310° at 5 KTS
Cloud Levels
  • Clear skies

Mar-23@
22:00 UTC

Mar-23 @ 22:00 UTC

Mar-24@
00:00 UTC

Mar-24 @ 00:00 UTC

FM232200 VRB03KT P6SM SKC

From

From Standard forecast or significant change

Wind
  • Variable at 3 KTS
Cloud Levels
  • Clear skies